createdAt,value
2018-01-08T00:00:37.624Z,1030.65
2018-01-08T00:01:37.752Z,1030.68
2018-01-08T00:02:37.694Z,1030.65
2018-01-08T00:03:37.687Z,1030.68
2018-01-08T00:04:37.723Z,1030.71
2018-01-08T00:05:37.725Z,1030.65
2018-01-08T00:06:38.122Z,1030.67
2018-01-08T00:07:38.160Z,1030.68
2018-01-08T00:08:38.338Z,1030.69
2018-01-08T00:09:38.312Z,1030.7
2018-01-08T00:10:38.452Z,1030.7
2018-01-08T00:11:38.840Z,1030.66
2018-01-08T00:12:38.881Z,1030.67
2018-01-08T00:13:38.890Z,1030.71
2018-01-08T00:14:39.207Z,1030.68
2018-01-08T00:15:39.232Z,1030.65
2018-01-08T00:16:39.664Z,1030.67
2018-01-08T00:17:39.619Z,1030.7
2018-01-08T00:18:39.634Z,1030.71
2018-01-08T00:19:39.700Z,1030.68
2018-01-08T00:20:39.695Z,1030.63
2018-01-08T00:21:40.082Z,1030.6
2018-01-08T00:22:40.122Z,1030.66
2018-01-08T00:23:40.271Z,1030.64
2018-01-08T00:24:40.660Z,1030.66
2018-01-08T00:25:40.697Z,1030.65
2018-01-08T00:26:40.700Z,1030.74
2018-01-08T00:27:41.113Z,1030.7
2018-01-08T00:28:41.154Z,1030.69
2018-01-08T00:29:41.179Z,1030.63
2018-01-08T00:30:41.353Z,1030.66
2018-01-08T00:31:41.493Z,1030.75
2018-01-08T00:32:41.897Z,1030.68
2018-01-08T00:33:42.245Z,1030.75
2018-01-08T00:34:42.284Z,1030.72
2018-01-08T00:35:42.626Z,1030.69
2018-01-08T00:36:43.016Z,1030.77
2018-01-08T00:37:42.664Z,1030.73
2018-01-08T00:38:43.126Z,1030.71
2018-01-08T00:39:42.728Z,1030.66
2018-01-08T00:40:42.794Z,1030.69
2018-01-08T00:41:42.781Z,1030.69
2018-01-08T00:42:43.010Z,1030.67
2018-01-08T00:43:43.018Z,1030.68
2018-01-08T00:44:43.450Z,1030.68
2018-01-08T00:45:43.461Z,1030.67
2018-01-08T00:46:43.486Z,1030.67
2018-01-08T00:47:43.535Z,1030.65
2018-01-08T00:48:43.545Z,1030.63
2018-01-08T00:49:43.562Z,1030.6
2018-01-08T00:50:44.018Z,1030.68
2018-01-08T00:51:43.581Z,1030.61
2018-01-08T00:52:43.977Z,1030.63
2018-01-08T00:53:43.632Z,1030.66
2018-01-08T00:54:43.983Z,1030.64
2018-01-08T00:55:43.993Z,1030.59
2018-01-08T00:56:43.954Z,1030.6
2018-01-08T00:57:43.882Z,1030.58
2018-01-08T00:58:43.808Z,1030.59
2018-01-08T00:59:43.938Z,1030.58
2018-01-08T01:00:44.174Z,1030.66
2018-01-08T01:01:43.934Z,1030.62
2018-01-08T01:02:44.372Z,1030.6
2018-01-08T01:03:44.185Z,1030.64
2018-01-08T01:04:44.374Z,1030.62
2018-01-08T01:05:44.057Z,1030.58
2018-01-08T01:06:44.300Z,1030.63
2018-01-08T01:07:44.107Z,1030.63
2018-01-08T01:08:44.326Z,1030.61
2018-01-08T01:09:44.042Z,1030.57
2018-01-08T01:10:44.365Z,1030.59
2018-01-08T01:11:43.973Z,1030.58
2018-01-08T01:12:44.410Z,1030.58
2018-01-08T01:13:44.033Z,1030.58
2018-01-08T01:14:44.478Z,1030.61
2018-01-08T01:15:44.168Z,1030.55
2018-01-08T01:16:44.470Z,1030.53
2018-01-08T01:17:44.672Z,1030.51
2018-01-08T01:18:44.207Z,1030.54
2018-01-08T01:19:44.125Z,1030.49
2018-01-08T01:20:44.153Z,1030.5
2018-01-08T01:21:44.330Z,1030.48
2018-01-08T01:22:44.349Z,1030.47
2018-01-08T01:23:44.374Z,1030.51
2018-01-08T01:24:44.673Z,1030.45
2018-01-08T01:25:45.053Z,1030.47
2018-01-08T01:26:45.356Z,1030.52
2018-01-08T01:27:45.299Z,1030.5
2018-01-08T01:28:45.228Z,1030.41
2018-01-08T01:29:45.231Z,1030.44
2018-01-08T01:30:45.635Z,1030.4
2018-01-08T01:31:45.739Z,1030.4
2018-01-08T01:32:45.601Z,1030.41
2018-01-08T01:33:45.584Z,1030.42
2018-01-08T01:34:45.390Z,1030.46
2018-01-08T01:35:45.615Z,1030.41
2018-01-08T01:36:45.273Z,1030.43
2018-01-08T01:37:45.640Z,1030.47
2018-01-08T01:38:45.328Z,1030.38
2018-01-08T01:39:45.393Z,1030.38
2018-01-08T01:40:45.349Z,1030.49
2018-01-08T01:41:45.369Z,1030.39
2018-01-08T01:42:45.466Z,1030.39
2018-01-08T01:43:45.468Z,1030.39
2018-01-08T01:44:45.478Z,1030.44
2018-01-08T01:45:45.650Z,1030.42
2018-01-08T01:46:45.650Z,1030.51
2018-01-08T01:47:45.931Z,1030.5
2018-01-08T01:48:46.007Z,1030.48
2018-01-08T01:49:45.950Z,1030.44
2018-01-08T01:50:46.029Z,1030.47
2018-01-08T01:51:46.219Z,1030.52
2018-01-08T01:52:46.271Z,1030.51
2018-01-08T01:53:46.590Z,1030.53
2018-01-08T01:54:46.725Z,1030.51
2018-01-08T01:55:46.754Z,1030.52
2018-01-08T01:56:46.775Z,1030.49
2018-01-08T01:57:47.095Z,1030.46
2018-01-08T01:58:46.851Z,1030.48
2018-01-08T01:59:46.873Z,1030.49
2018-01-08T02:00:46.845Z,1030.5
2018-01-08T02:01:46.912Z,1030.48
2018-01-08T02:02:46.943Z,1030.58
2018-01-08T02:03:46.954Z,1030.46
2018-01-08T02:04:47.057Z,1030.48
2018-01-08T02:05:47.086Z,1030.47
2018-01-08T02:06:47.386Z,1030.45
2018-01-08T02:07:47.176Z,1030.49
2018-01-08T02:08:47.056Z,1030.43
2018-01-08T02:09:47.045Z,1030.44
2018-01-08T02:10:47.482Z,1030.44
2018-01-08T02:11:47.630Z,1030.43
2018-01-08T02:12:48.086Z,1030.44
2018-01-08T02:13:48.535Z,1030.51
2018-01-08T02:14:48.816Z,1030.43
2018-01-08T02:15:48.866Z,1030.46
2018-01-08T02:16:48.839Z,1030.36
2018-01-08T02:17:48.898Z,1030.37
2018-01-08T02:18:48.869Z,1030.38
2018-01-08T02:19:48.902Z,1030.41
2018-01-08T02:20:49.307Z,1030.4
2018-01-08T02:21:49.330Z,1030.4
2018-01-08T02:22:49.340Z,1030.43
2018-01-08T02:23:49.398Z,1030.37
2018-01-08T02:24:49.394Z,1030.38
2018-01-08T02:25:49.413Z,1030.37
2018-01-08T02:26:49.432Z,1030.41
2018-01-08T02:27:49.871Z,1030.39
2018-01-08T02:28:49.896Z,1030.31
2018-01-08T02:29:49.997Z,1030.25
2018-01-08T02:30:50.009Z,1030.32
2018-01-08T02:32:55.310Z,1030.33
2018-01-08T02:33:55.328Z,1030.35
2018-01-08T02:34:55.350Z,1030.39
2018-01-08T02:35:55.535Z,1030.43
2018-01-08T02:36:55.637Z,1030.39
2018-01-08T02:37:55.662Z,1030.39
2018-01-08T02:38:56.037Z,1030.37
2018-01-08T02:39:56.403Z,1030.32
2018-01-08T02:40:56.419Z,1030.33
2018-01-08T02:41:56.553Z,1030.33
2018-01-08T02:42:56.976Z,1030.37
2018-01-08T02:43:57.144Z,1030.38
2018-01-08T02:44:57.550Z,1030.3
2018-01-08T02:45:57.567Z,1030.36
2018-01-08T02:46:57.584Z,1030.32
2018-01-08T02:47:57.606Z,1030.24
2018-01-08T02:48:58.014Z,1030.28
2018-01-08T02:49:58.377Z,1030.29
2018-01-08T02:50:58.398Z,1030.31
2018-01-08T02:51:58.800Z,1030.28
2018-01-08T02:52:58.954Z,1030.3
2018-01-08T02:53:59.235Z,1030.34
2018-01-08T02:54:59.252Z,1030.37
2018-01-08T02:55:59.400Z,1030.31
2018-01-08T02:56:59.680Z,1030.29
2018-01-08T02:57:59.702Z,1030.38
2018-01-08T02:58:59.725Z,1030.35
2018-01-08T02:59:59.736Z,1030.3
2018-01-08T03:00:59.760Z,1030.27
2018-01-08T03:01:59.776Z,1030.3
2018-01-08T03:02:59.818Z,1030.31
2018-01-08T03:03:59.813Z,1030.28
2018-01-08T03:04:59.836Z,1030.33
2018-01-08T03:05:59.854Z,1030.35
2018-01-08T03:06:59.870Z,1030.34
2018-01-08T03:07:59.892Z,1030.38
2018-01-08T03:09:00.024Z,1030.34
2018-01-08T03:10:00.401Z,1030.37
2018-01-08T03:11:00.416Z,1030.36
2018-01-08T03:12:00.553Z,1030.31
2018-01-08T03:13:00.692Z,1030.33
2018-01-08T03:14:00.865Z,1030.38
2018-01-08T03:15:00.898Z,1030.33
2018-01-08T03:16:01.304Z,1030.37
2018-01-08T03:17:01.320Z,1030.38
2018-01-08T03:18:01.402Z,1030.42
2018-01-08T03:19:01.531Z,1030.41
2018-01-08T03:20:01.672Z,1030.46
2018-01-08T03:21:02.081Z,1030.48
2018-01-08T03:22:02.220Z,1030.43
2018-01-08T03:23:02.503Z,1030.43
2018-01-08T03:24:02.892Z,1030.42
2018-01-08T03:25:02.909Z,1030.45
2018-01-08T03:26:02.928Z,1030.45
2018-01-08T03:27:03.068Z,1030.42
2018-01-08T03:28:03.346Z,1030.48
2018-01-08T03:29:03.364Z,1030.5
2018-01-08T03:30:03.398Z,1030.47
2018-01-08T03:31:03.614Z,1030.54
2018-01-08T03:32:03.596Z,1030.48
2018-01-08T03:33:03.971Z,1030.51
2018-01-08T03:34:03.648Z,1030.5
2018-01-08T03:35:04.158Z,1030.54
2018-01-08T03:36:04.269Z,1030.5
2018-01-08T03:37:04.399Z,1030.43
2018-01-08T03:38:04.409Z,1030.44
2018-01-08T03:39:04.426Z,1030.46
2018-01-08T03:40:04.685Z,1030.45
2018-01-08T03:41:04.653Z,1030.42
2018-01-08T03:42:04.876Z,1030.49
2018-01-08T03:43:05.000Z,1030.51
2018-01-08T03:44:05.016Z,1030.49
2018-01-08T03:45:05.042Z,1030.53
2018-01-08T03:46:05.257Z,1030.46
2018-01-08T03:47:05.269Z,1030.46
2018-01-08T03:48:05.297Z,1030.51
2018-01-08T03:49:05.683Z,1030.62
2018-01-08T03:50:06.045Z,1030.55
2018-01-08T03:51:06.499Z,1030.6
2018-01-08T03:52:06.672Z,1030.53
2018-01-08T03:53:06.691Z,1030.55
2018-01-08T03:54:07.071Z,1030.56
2018-01-08T03:55:07.096Z,1030.6
2018-01-08T03:56:07.466Z,1030.6
2018-01-08T03:57:07.813Z,1030.55
2018-01-08T03:58:07.840Z,1030.54
2018-01-08T03:59:08.268Z,1030.52
2018-01-08T04:00:22.904Z,1030.54
2018-01-08T04:01:23.099Z,1030.57
2018-01-08T04:02:23.279Z,1030.54
2018-01-08T04:03:23.118Z,1030.47
2018-01-08T04:04:23.146Z,1030.49
2018-01-08T04:05:23.277Z,1030.52
2018-01-08T04:06:23.346Z,1030.51
2018-01-08T04:07:23.430Z,1030.51
2018-01-08T04:08:23.469Z,1030.48
2018-01-08T04:09:23.477Z,1030.48
2018-01-08T04:10:23.489Z,1030.51
2018-01-08T04:11:23.880Z,1030.46
2018-01-08T04:12:23.886Z,1030.5
2018-01-08T04:13:24.029Z,1030.44
2018-01-08T04:14:24.232Z,1030.42
2018-01-08T04:15:24.418Z,1030.5
2018-01-08T04:16:24.434Z,1030.47
2018-01-08T04:17:24.556Z,1030.45
2018-01-08T04:18:25.026Z,1030.44
2018-01-08T04:19:25.023Z,1030.51
2018-01-08T04:20:25.068Z,1030.53
2018-01-08T04:21:25.086Z,1030.47
2018-01-08T04:22:25.530Z,1030.51
2018-01-08T04:23:25.548Z,1030.46
2018-01-08T04:24:26.056Z,1030.5
2018-01-08T04:25:25.988Z,1030.46
2018-01-08T04:26:26.427Z,1030.45
2018-01-08T04:27:26.495Z,1030.44
2018-01-08T04:28:26.527Z,1030.47
2018-01-08T04:29:26.924Z,1030.5
2018-01-08T04:30:26.937Z,1030.45
2018-01-08T04:31:27.292Z,1030.57
2018-01-08T04:32:27.303Z,1030.47
2018-01-08T04:33:27.502Z,1030.56
2018-01-08T04:34:28.196Z,1030.54
2018-01-08T04:35:28.515Z,1030.55
2018-01-08T04:36:28.559Z,1030.55
2018-01-08T04:37:28.561Z,1030.63
2018-01-08T04:38:29.608Z,1030.63
2018-01-08T04:39:29.092Z,1030.66
2018-01-08T04:40:29.306Z,1030.62
2018-01-08T04:41:29.575Z,1030.66
2018-01-08T04:42:29.207Z,1030.73
2018-01-08T04:43:29.566Z,1030.65
2018-01-08T04:44:29.171Z,1030.64
2018-01-08T04:45:29.170Z,1030.66
2018-01-08T04:46:29.191Z,1030.69
2018-01-08T04:47:29.701Z,1030.78
2018-01-08T04:48:29.723Z,1030.69
2018-01-08T04:49:30.186Z,1030.7
2018-01-08T04:50:30.195Z,1030.72
2018-01-08T04:51:30.202Z,1030.76
2018-01-08T04:52:30.244Z,1030.73
2018-01-08T04:53:30.399Z,1030.73
2018-01-08T04:54:30.419Z,1030.77
2018-01-08T04:55:30.436Z,1030.77
2018-01-08T04:56:30.507Z,1030.73
2018-01-08T04:57:30.492Z,1030.79
2018-01-08T04:58:30.497Z,1030.8
2018-01-08T04:59:30.506Z,1030.77
2018-01-08T05:00:32.010Z,1030.88
2018-01-08T05:01:31.511Z,1030.81
2018-01-08T05:02:31.535Z,1030.9
2018-01-08T05:03:31.552Z,1030.87
2018-01-08T05:04:31.946Z,1030.87
2018-01-08T05:05:32.353Z,1030.94
2018-01-08T05:06:32.372Z,1030.92
2018-01-08T05:07:32.791Z,1030.94
2018-01-08T05:08:33.237Z,1030.94
2018-01-08T05:09:32.826Z,1030.93
2018-01-08T05:10:32.851Z,1031.02
2018-01-08T05:11:33.051Z,1031.03
2018-01-08T05:12:33.046Z,1031.04
2018-01-08T05:13:33.071Z,1031.05
2018-01-08T05:14:33.187Z,1031.08
2018-01-08T05:15:33.584Z,1031.07
2018-01-08T05:16:33.699Z,1031.12
2018-01-08T05:17:33.817Z,1031.09
2018-01-08T05:18:33.988Z,1031.14
2018-01-08T05:19:33.659Z,1031.17
2018-01-08T05:20:33.684Z,1031.11
2018-01-08T05:21:33.707Z,1031.12
2018-01-08T05:22:34.055Z,1031.1
2018-01-08T05:23:33.828Z,1031.12
2018-01-08T05:24:33.848Z,1031.13
2018-01-08T05:25:33.856Z,1031.09
2018-01-08T05:26:34.018Z,1031.11
2018-01-08T05:27:34.021Z,1031.2
2018-01-08T05:28:34.064Z,1031.18
2018-01-08T05:29:34.051Z,1031.16
2018-01-08T05:30:34.083Z,1031.15
2018-01-08T05:31:34.347Z,1031.13
2018-01-08T05:32:34.348Z,1031.08
2018-01-08T05:33:34.775Z,1031.08
2018-01-08T05:34:35.199Z,1031.08
2018-01-08T05:35:35.368Z,1031.02
2018-01-08T05:36:35.678Z,1031.02
2018-01-08T05:37:36.099Z,1031.01
2018-01-08T05:38:36.116Z,1031.05
2018-01-08T05:39:36.158Z,1031
2018-01-08T05:40:36.180Z,1031.02
2018-01-08T05:41:36.189Z,1031.02
2018-01-08T05:42:36.654Z,1031.03
2018-01-08T05:43:36.676Z,1031.1
2018-01-08T05:44:36.775Z,1031.15
2018-01-08T05:45:36.784Z,1031.12
2018-01-08T05:46:36.917Z,1031.08
2018-01-08T05:47:36.942Z,1031.05
2018-01-08T05:48:36.962Z,1031.06
2018-01-08T05:49:36.978Z,1031.07
2018-01-08T05:50:37.189Z,1031.06
2018-01-08T05:51:37.205Z,1031.1
2018-01-08T05:52:37.340Z,1031.1
2018-01-08T05:53:37.233Z,1031.07
2018-01-08T05:54:37.252Z,1031.12
2018-01-08T05:55:38.059Z,1031.11
2018-01-08T05:56:38.008Z,1031.09
2018-01-08T05:57:38.018Z,1031.14
2018-01-08T05:58:38.123Z,1031.15
2018-01-08T05:59:38.165Z,1031.21
2018-01-08T06:00:38.197Z,1031.23
2018-01-08T06:01:38.196Z,1031.16
2018-01-08T06:02:38.292Z,1031.19
2018-01-08T06:03:38.783Z,1031.17
2018-01-08T06:04:38.404Z,1031.18
2018-01-08T06:05:38.593Z,1031.14
2018-01-08T06:06:38.591Z,1031.13
2018-01-08T06:07:39.004Z,1031.13
2018-01-08T06:08:39.054Z,1031.24
2018-01-08T06:09:39.065Z,1031.22
2018-01-08T06:10:39.440Z,1031.14
2018-01-08T06:11:39.442Z,1031.22
2018-01-08T06:12:39.621Z,1031.19
2018-01-08T06:13:39.492Z,1031.15
2018-01-08T06:14:39.878Z,1031.17
2018-01-08T06:15:40.141Z,1031.12
2018-01-08T06:16:40.712Z,1031.12
2018-01-08T06:17:40.659Z,1031.07
2018-01-08T06:18:41.568Z,1031.14
2018-01-08T06:19:40.993Z,1031.14
2018-01-08T06:20:41.414Z,1031.11
2018-01-08T06:21:41.032Z,1031.16
2018-01-08T06:22:41.422Z,1031.15
2018-01-08T06:23:41.585Z,1031.24
2018-01-08T06:24:41.592Z,1031.18
2018-01-08T06:25:41.602Z,1031.2
2018-01-08T06:26:41.725Z,1031.3
2018-01-08T06:27:41.839Z,1031.3
2018-01-08T06:28:41.759Z,1031.33
2018-01-08T06:29:42.197Z,1031.29
2018-01-08T06:30:42.383Z,1031.32
2018-01-08T06:31:42.532Z,1031.36
2018-01-08T06:32:42.797Z,1031.36
2018-01-08T06:33:42.950Z,1031.31
2018-01-08T06:34:42.815Z,1031.31
2018-01-08T06:35:43.045Z,1031.28
2018-01-08T06:36:42.876Z,1031.27
2018-01-08T06:37:42.889Z,1031.33
2018-01-08T06:38:42.887Z,1031.33
2018-01-08T06:39:43.461Z,1031.36
2018-01-08T06:40:43.376Z,1031.35
2018-01-08T06:41:43.735Z,1031.34
2018-01-08T06:42:43.644Z,1031.36
2018-01-08T06:43:43.945Z,1031.39
2018-01-08T06:44:44.136Z,1031.38
2018-01-08T06:45:44.068Z,1031.37
2018-01-08T06:46:43.962Z,1031.32
2018-01-08T06:47:44.021Z,1031.31
2018-01-08T06:48:44.280Z,1031.27
2018-01-08T06:49:44.024Z,1031.32
2018-01-08T06:50:44.445Z,1031.31
2018-01-08T06:51:44.848Z,1031.38
2018-01-08T06:52:45.194Z,1031.31
2018-01-08T06:53:45.596Z,1031.32
2018-01-08T06:54:45.594Z,1031.39
2018-01-08T06:55:45.768Z,1031.37
2018-01-08T06:56:46.168Z,1031.4
2018-01-08T06:57:46.320Z,1031.37
2018-01-08T06:58:46.477Z,1031.38
2018-01-08T06:59:46.976Z,1031.33
2018-01-08T07:00:46.948Z,1031.44
2018-01-08T07:01:47.229Z,1031.5
2018-01-08T07:02:47.146Z,1031.45
2018-01-08T07:03:47.121Z,1031.49
2018-01-08T07:04:47.027Z,1031.48
2018-01-08T07:05:47.148Z,1031.44
2018-01-08T07:06:47.577Z,1031.44
2018-01-08T07:07:47.772Z,1031.38
2018-01-08T07:08:47.789Z,1031.4
2018-01-08T07:09:47.789Z,1031.31
2018-01-08T07:10:47.807Z,1031.36
2018-01-08T07:11:48.160Z,1031.38
2018-01-08T07:12:48.244Z,1031.4
2018-01-08T07:13:48.644Z,1031.36
2018-01-08T07:14:48.999Z,1031.35
2018-01-08T07:15:49.094Z,1031.38
2018-01-08T07:16:49.117Z,1031.37
2018-01-08T07:17:49.148Z,1031.38
2018-01-08T07:18:49.151Z,1031.42
2018-01-08T07:19:49.184Z,1031.41
2018-01-08T07:20:49.253Z,1031.41
2018-01-08T07:21:49.285Z,1031.44
2018-01-08T07:22:49.286Z,1031.54
2018-01-08T07:23:49.420Z,1031.55
2018-01-08T07:24:49.592Z,1031.61
2018-01-08T07:25:49.966Z,1031.6
2018-01-08T07:26:50.092Z,1031.65
2018-01-08T07:27:50.109Z,1031.61
2018-01-08T07:28:50.262Z,1031.54
2018-01-08T07:29:50.135Z,1031.51
2018-01-08T07:30:50.720Z,1031.48
2018-01-08T07:31:50.784Z,1031.46
2018-01-08T07:32:51.259Z,1031.41
2018-01-08T07:33:51.248Z,1031.36
2018-01-08T07:34:51.288Z,1031.34
2018-01-08T07:35:51.446Z,1031.36
2018-01-08T07:36:51.457Z,1031.38
2018-01-08T07:37:51.912Z,1031.39
2018-01-08T07:38:52.279Z,1031.34
2018-01-08T07:39:52.748Z,1031.31
2018-01-08T07:40:52.747Z,1031.33
2018-01-08T07:41:53.158Z,1031.35
2018-01-08T07:42:53.255Z,1031.25
2018-01-08T07:43:53.282Z,1031.3
2018-01-08T07:44:53.310Z,1031.37
2018-01-08T07:45:53.316Z,1031.3
2018-01-08T07:46:53.456Z,1031.38
2018-01-08T07:47:53.470Z,1031.36
2018-01-08T07:48:53.508Z,1031.41
2018-01-08T07:49:53.890Z,1031.38
2018-01-08T07:50:54.158Z,1031.37
2018-01-08T07:51:54.176Z,1031.42
2018-01-08T07:52:54.346Z,1031.36
2018-01-08T07:53:54.375Z,1031.38
2018-01-08T07:54:54.468Z,1031.37
2018-01-08T07:55:54.509Z,1031.38
2018-01-08T07:56:54.510Z,1031.45
2018-01-08T07:57:54.636Z,1031.47
2018-01-08T07:58:54.821Z,1031.45
2018-01-08T07:59:55.174Z,1031.42
2018-01-08T08:00:55.236Z,1031.54
2018-01-08T08:01:55.334Z,1031.48
2018-01-08T08:02:55.267Z,1031.53
2018-01-08T08:03:55.197Z,1031.57
2018-01-08T08:04:55.293Z,1031.61
2018-01-08T08:05:55.225Z,1031.51
2018-01-08T08:06:55.289Z,1031.58
2018-01-08T08:07:55.286Z,1031.53
2018-01-08T08:08:55.286Z,1031.55
2018-01-08T08:09:55.366Z,1031.61
2018-01-08T08:10:55.313Z,1031.66
2018-01-08T08:11:55.335Z,1031.64
2018-01-08T08:12:55.372Z,1031.64
2018-01-08T08:13:55.508Z,1031.62
2018-01-08T08:14:55.518Z,1031.63
2018-01-08T08:15:55.567Z,1031.59
2018-01-08T08:16:55.540Z,1031.59
2018-01-08T08:17:55.597Z,1031.58
2018-01-08T08:18:55.584Z,1031.53
2018-01-08T08:19:55.591Z,1031.59
2018-01-08T08:20:55.637Z,1031.52
2018-01-08T08:21:55.638Z,1031.6
2018-01-08T08:22:56.079Z,1031.58
2018-01-08T08:23:55.695Z,1031.45
2018-01-08T08:24:55.707Z,1031.45
2018-01-08T08:25:55.720Z,1031.37
2018-01-08T08:26:56.376Z,1031.45
2018-01-08T08:27:56.155Z,1031.44
2018-01-08T08:28:56.176Z,1031.53
2018-01-08T08:29:56.224Z,1031.51
2018-01-08T08:30:56.200Z,1031.51
2018-01-08T08:31:56.233Z,1031.48
2018-01-08T08:32:56.315Z,1031.42
2018-01-08T08:33:56.259Z,1031.41
2018-01-08T08:34:56.290Z,1031.39
2018-01-08T08:35:56.304Z,1031.47
2018-01-08T08:36:56.310Z,1031.48
2018-01-08T08:37:56.367Z,1031.42
2018-01-08T08:38:56.371Z,1031.39
2018-01-08T08:39:56.399Z,1031.44
2018-01-08T08:40:56.414Z,1031.35
2018-01-08T08:41:56.418Z,1031.37
2018-01-08T08:42:56.878Z,1031.35
2018-01-08T08:43:56.924Z,1031.37
2018-01-08T08:44:56.916Z,1031.39
2018-01-08T08:46:02.617Z,1031.33
2018-01-08T08:47:02.616Z,1031.37
2018-01-08T08:48:02.615Z,1031.4
2018-01-08T08:49:02.685Z,1031.35
2018-01-08T08:50:02.707Z,1031.38
2018-01-08T08:51:02.805Z,1031.31
2018-01-08T08:52:03.189Z,1031.35
2018-01-08T08:53:02.928Z,1031.38
2018-01-08T08:54:02.785Z,1031.33
2018-01-08T08:55:02.788Z,1031.44
2018-01-08T08:56:02.832Z,1031.36
2018-01-08T08:57:03.242Z,1031.4
2018-01-08T08:58:03.463Z,1031.24
2018-01-08T08:59:03.279Z,1031.31
2018-01-08T09:01:03.332Z,1031.32
2018-01-08T09:02:03.334Z,1031.33
2018-01-08T09:03:03.477Z,1031.41
2018-01-08T09:04:03.486Z,1031.42
2018-01-08T09:05:04.051Z,1031.49
2018-01-08T09:06:03.987Z,1031.39
2018-01-08T09:07:04.134Z,1031.41
2018-01-08T09:08:04.046Z,1031.45
2018-01-08T09:09:04.014Z,1031.4
2018-01-08T09:10:04.182Z,1031.44
2018-01-08T09:11:04.105Z,1031.52
2018-01-08T09:12:04.177Z,1031.45
2018-01-08T09:13:04.272Z,1031.44
2018-01-08T09:14:04.575Z,1031.5
2018-01-08T09:15:04.637Z,1031.43
2018-01-08T09:16:05.207Z,1031.42
2018-01-08T09:17:05.352Z,1031.43
2018-01-08T09:18:05.196Z,1031.5
2018-01-08T09:19:05.433Z,1031.53
2018-01-08T09:20:05.619Z,1031.49
2018-01-08T09:21:05.977Z,1031.51
2018-01-08T09:22:05.854Z,1031.48
2018-01-08T09:23:06.037Z,1031.49
2018-01-08T09:24:06.046Z,1031.47
2018-01-08T09:25:06.494Z,1031.47
2018-01-08T09:26:06.524Z,1031.34
2018-01-08T09:27:06.593Z,1031.33
2018-01-08T09:28:06.609Z,1031.41
2018-01-08T09:29:06.605Z,1031.38
2018-01-08T09:30:06.881Z,1031.48
2018-01-08T09:31:07.172Z,1031.52
2018-01-08T09:32:07.234Z,1031.5
2018-01-08T09:33:07.112Z,1031.51
2018-01-08T09:34:07.026Z,1031.47
2018-01-08T09:35:07.045Z,1031.47
2018-01-08T09:36:07.433Z,1031.49
2018-01-08T09:37:07.477Z,1031.51
2018-01-08T09:38:07.380Z,1031.51
2018-01-08T09:39:07.349Z,1031.58
2018-01-08T09:40:07.138Z,1031.58
2018-01-08T09:41:07.184Z,1031.55
2018-01-08T09:42:07.226Z,1031.59
2018-01-08T09:43:07.199Z,1031.48
2018-01-08T09:44:07.272Z,1031.47
2018-01-08T09:45:07.266Z,1031.42
2018-01-08T09:46:07.513Z,1031.48
2018-01-08T09:47:07.610Z,1031.41
2018-01-08T09:48:08.100Z,1031.48
2018-01-08T09:49:08.050Z,1031.43
2018-01-08T09:50:08.251Z,1031.43
2018-01-08T09:51:08.162Z,1031.46
2018-01-08T09:52:08.115Z,1031.47
2018-01-08T09:53:08.154Z,1031.3
2018-01-08T09:54:08.330Z,1031.47
2018-01-08T09:55:08.360Z,1031.38
2018-01-08T09:56:08.519Z,1031.32
2018-01-08T09:57:08.618Z,1031.32
2018-01-08T09:58:08.954Z,1031.33
2018-01-08T09:59:08.733Z,1031.29
2018-01-08T10:01:08.731Z,1031.34
2018-01-08T10:02:08.818Z,1031.33
2018-01-08T10:03:08.846Z,1031.28
2018-01-08T10:04:08.945Z,1031.4
2018-01-08T10:05:09.009Z,1031.42
2018-01-08T10:06:09.178Z,1031.39
2018-01-08T10:07:09.127Z,1031.37
2018-01-08T10:08:09.086Z,1031.34
2018-01-08T10:09:09.129Z,1031.3
2018-01-08T10:10:09.098Z,1031.3
2018-01-08T10:11:09.160Z,1031.27
2018-01-08T10:12:09.526Z,1031.24
2018-01-08T10:13:09.540Z,1031.22
2018-01-08T10:14:09.997Z,1031.3
2018-01-08T10:15:10.049Z,1031.25
2018-01-08T10:16:10.075Z,1031.23
2018-01-08T10:17:10.096Z,1031.21
2018-01-08T10:18:10.557Z,1031.29
2018-01-08T10:19:10.744Z,1031.15
2018-01-08T10:20:10.759Z,1031.19
2018-01-08T10:21:10.775Z,1031.24
2018-01-08T10:22:10.846Z,1031.31
2018-01-08T10:23:11.114Z,1031.17
2018-01-08T10:24:11.256Z,1031.2
2018-01-08T10:25:11.512Z,1031.04
2018-01-08T10:26:11.523Z,1031.09
2018-01-08T10:27:11.547Z,1031.16
2018-01-08T10:28:11.579Z,1031.11
2018-01-08T10:29:11.592Z,1031.17
2018-01-08T10:30:12.033Z,1031.16
2018-01-08T10:31:12.057Z,1031.14
2018-01-08T10:32:12.380Z,1031.2
2018-01-08T10:33:12.399Z,1031.17
2018-01-08T10:34:12.484Z,1031.15
2018-01-08T10:35:12.760Z,1031.17
2018-01-08T10:36:13.026Z,1031.11
2018-01-08T10:37:12.799Z,1031.17
2018-01-08T10:38:13.087Z,1031.18
2018-01-08T10:39:13.125Z,1031.13
2018-01-08T10:40:13.547Z,1031.2
2018-01-08T10:41:13.773Z,1031.09
2018-01-08T10:42:13.328Z,1031.11
2018-01-08T10:43:13.211Z,1031.1
2018-01-08T10:44:13.228Z,1031.16
2018-01-08T10:45:13.415Z,1031.06
2018-01-08T10:46:13.445Z,1031.08
2018-01-08T10:47:13.458Z,1031.1
2018-01-08T10:48:13.675Z,1031.06
2018-01-08T10:49:13.690Z,1031.11
2018-01-08T10:50:13.706Z,1031.12
2018-01-08T10:51:13.732Z,1030.97
2018-01-08T10:52:14.012Z,1031.01
2018-01-08T10:53:14.002Z,1030.94
2018-01-08T10:54:14.028Z,1030.94
2018-01-08T10:55:14.250Z,1030.89
2018-01-08T10:56:14.265Z,1031
2018-01-08T10:57:14.479Z,1030.84
2018-01-08T10:58:14.496Z,1030.88
2018-01-08T10:59:14.958Z,1030.82
2018-01-08T11:00:19.977Z,1030.79
2018-01-08T11:01:20.132Z,1030.9
2018-01-08T11:02:20.121Z,1030.83
2018-01-08T11:03:20.564Z,1030.78
2018-01-08T11:04:21.012Z,1030.87
2018-01-08T11:05:20.976Z,1030.77
2018-01-08T11:06:20.974Z,1030.75
2018-01-08T11:07:21.606Z,1030.74
2018-01-08T11:08:21.208Z,1030.76
2018-01-08T11:09:21.384Z,1030.79
2018-01-08T11:10:21.673Z,1030.76
2018-01-08T11:11:21.915Z,1030.73
2018-01-08T11:12:22.353Z,1030.63
2018-01-08T11:14:22.256Z,1030.69
2018-01-08T11:15:22.488Z,1030.63
2018-01-08T11:16:22.239Z,1030.64
2018-01-08T11:17:22.478Z,1030.61
2018-01-08T11:18:22.732Z,1030.66
2018-01-08T11:19:22.338Z,1030.68
2018-01-08T11:20:22.507Z,1030.62
2018-01-08T11:21:22.537Z,1030.58
2018-01-08T11:22:22.789Z,1030.61
2018-01-08T11:23:22.446Z,1030.6
2018-01-08T11:24:22.506Z,1030.54
2018-01-08T11:25:22.628Z,1030.56
2018-01-08T11:26:22.633Z,1030.53
2018-01-08T11:27:23.011Z,1030.5
2018-01-08T11:28:23.423Z,1030.46
2018-01-08T11:29:23.453Z,1030.41
2018-01-08T11:30:23.489Z,1030.45
2018-01-08T11:31:23.978Z,1030.46
2018-01-08T11:32:23.944Z,1030.47
2018-01-08T11:33:24.361Z,1030.34
2018-01-08T11:34:24.640Z,1030.32
2018-01-08T11:35:24.665Z,1030.37
2018-01-08T11:36:24.710Z,1030.32
2018-01-08T11:37:24.918Z,1030.41
2018-01-08T11:38:25.201Z,1030.41
2018-01-08T11:39:25.088Z,1030.37
2018-01-08T11:40:25.020Z,1030.28
2018-01-08T11:41:25.035Z,1030.35
2018-01-08T11:42:25.052Z,1030.32
2018-01-08T11:43:25.804Z,1030.33
2018-01-08T11:44:25.433Z,1030.34
2018-01-08T11:45:25.855Z,1030.38
2018-01-08T11:46:25.464Z,1030.32
2018-01-08T11:47:25.756Z,1030.24
2018-01-08T11:48:25.795Z,1030.3
2018-01-08T11:49:25.762Z,1030.4
2018-01-08T11:50:25.843Z,1030.28
2018-01-08T11:51:25.803Z,1030.44
2018-01-08T11:52:26.211Z,1030.33
2018-01-08T11:53:26.387Z,1030.29
2018-01-08T11:54:26.679Z,1030.42
2018-01-08T11:55:27.107Z,1030.31
2018-01-08T11:56:27.043Z,1030.17
2018-01-08T11:57:27.459Z,1030.18
2018-01-08T11:58:27.478Z,1030.21
2018-01-08T11:59:27.494Z,1030.29
2018-01-08T12:00:27.927Z,1030.22
2018-01-08T12:01:27.943Z,1030.2
2018-01-08T12:02:28.114Z,1030.33
2018-01-08T12:03:27.988Z,1030.41
2018-01-08T12:04:27.616Z,1030.26
2018-01-08T12:05:27.787Z,1030.38
2018-01-08T12:06:27.848Z,1030.26
2018-01-08T12:07:28.136Z,1030.28
2018-01-08T12:08:28.029Z,1030.28
2018-01-08T12:09:27.951Z,1030.29
2018-01-08T12:10:27.730Z,1030.29
2018-01-08T12:11:27.762Z,1030.21
2018-01-08T12:12:28.093Z,1030.32
2018-01-08T12:13:28.397Z,1030.25
2018-01-08T12:14:28.438Z,1030.27